sensor_id;sensor_type;location;lat;lon;timestamp;pressure;altitude;pressure_sealevel;temperature;humidity
12777;BME280;6452;41.572;23.732;2023-11-19T04:21:49;157671.78;;;-142.47;0.00
12777;BME280;6452;41.572;23.732;2023-11-19T12:17:46;95083.19;;;35.47;nan
12777;BME280;6452;41.572;23.732;2023-11-19T12:20:33;95081.59;;;34.17;nan
12777;BME280;6452;41.572;23.732;2023-11-19T12:23:05;95083.31;;;36.13;nan
12777;BME280;6452;41.572;23.732;2023-11-19T12:25:34;95083.25;;;34.86;nan
12777;BME280;6452;41.572;23.732;2023-11-19T12:28:01;95079.19;;;33.16;nan
12777;BME280;6452;41.572;23.732;2023-11-19T12:30:30;95074.44;;;32.22;nan
12777;BME280;6452;41.572;23.732;2023-11-19T12:32:57;95053.97;;;33.21;nan
12777;BME280;6452;41.572;23.732;2023-11-19T12:35:25;95096.06;;;33.39;nan
12777;BME280;6452;41.572;23.732;2023-11-19T12:37:53;95081.28;;;34.08;nan
12777;BME280;6452;41.572;23.732;2023-11-19T12:40:22;95081.09;;;34.29;nan
12777;BME280;6452;41.572;23.732;2023-11-19T12:42:53;95088.25;;;31.58;nan
12777;BME280;6452;41.572;23.732;2023-11-19T12:45:19;95050.69;;;32.60;nan
12777;BME280;6452;41.572;23.732;2023-11-19T12:47:47;95090.63;;;33.18;nan
12777;BME280;6452;41.572;23.732;2023-11-19T12:50:16;95085.66;;;32.91;nan
12777;BME280;6452;41.572;23.732;2023-11-19T12:52:55;95079.44;;;30.85;nan
12777;BME280;6452;41.572;23.732;2023-11-19T12:55:26;95087.84;;;31.31;nan
12777;BME280;6452;41.572;23.732;2023-11-19T12:57:52;95040.22;;;29.54;nan
12777;BME280;6452;41.572;23.732;2023-11-19T13:00:23;95077.44;;;30.72;nan
12777;BME280;6452;41.572;23.732;2023-11-19T13:02:52;95089.25;;;28.15;nan
12777;BME280;6452;41.572;23.732;2023-11-19T13:05:25;95096.38;;;29.60;nan
12777;BME280;6452;41.572;23.732;2023-11-19T13:08:09;95073.66;;;31.12;nan
12777;BME280;6452;41.572;23.732;2023-11-19T13:10:55;95042.31;;;33.47;nan
12777;BME280;6452;41.572;23.732;2023-11-19T13:13:21;95008.41;;;35.16;nan
12777;BME280;6452;41.572;23.732;2023-11-19T13:15:48;95070.91;;;34.19;nan
12777;BME280;6452;41.572;23.732;2023-11-19T13:18:16;95014.69;;;35.47;nan
12777;BME280;6452;41.572;23.732;2023-11-19T13:20:44;95051.38;;;35.32;nan
12777;BME280;6452;41.572;23.732;2023-11-19T13:23:11;95017.41;;;36.21;nan
12777;BME280;6452;41.572;23.732;2023-11-19T13:25:38;95047.44;;;35.56;nan
12777;BME280;6452;41.572;23.732;2023-11-19T13:28:05;95051.38;;;34.71;nan
12777;BME280;6452;41.572;23.732;2023-11-19T13:30:32;95020.63;;;34.31;nan
12777;BME280;6452;41.572;23.732;2023-11-19T13:33:00;95009.41;;;34.76;nan
12777;BME280;6452;41.572;23.732;2023-11-19T13:35:28;95055.22;;;33.06;nan
12777;BME280;6452;41.572;23.732;2023-11-19T13:37:56;95053.69;;;34.04;nan
12777;BME280;6452;41.572;23.732;2023-11-19T13:40:23;95023.03;;;32.78;nan
12777;BME280;6452;41.572;23.732;2023-11-19T13:42:51;95041.78;;;33.08;nan
12777;BME280;6452;41.572;23.732;2023-11-19T13:45:18;95016.53;;;34.77;nan
12777;BME280;6452;41.572;23.732;2023-11-19T13:47:47;95039.38;;;33.72;nan
12777;BME280;6452;41.572;23.732;2023-11-19T13:50:15;95042.56;;;34.08;nan
12777;BME280;6452;41.572;23.732;2023-11-19T13:52:45;95056.06;;;32.99;nan
12777;BME280;6452;41.572;23.732;2023-11-19T13:55:13;95057.78;;;30.70;nan
12777;BME280;6452;41.572;23.732;2023-11-19T13:57:41;95061.44;;;25.99;nan
12777;BME280;6452;41.572;23.732;2023-11-19T14:00:12;95065.19;;;22.13;nan
12777;BME280;6452;41.572;23.732;2023-11-19T14:02:46;95073.72;;;19.48;nan
12777;BME280;6452;41.572;23.732;2023-11-19T14:05:14;95079.41;;;17.78;nan
12777;BME280;6452;41.572;23.732;2023-11-19T14:07:45;95083.34;;;17.04;nan
12777;BME280;6452;41.572;23.732;2023-11-19T14:10:16;95065.81;;;15.82;nan
12777;BME280;6452;41.572;23.732;2023-11-19T14:12:43;95101.38;;;15.74;nan
12777;BME280;6452;41.572;23.732;2023-11-19T14:15:11;95069.97;;;15.50;nan
12777;BME280;6452;41.572;23.732;2023-11-19T14:17:43;95058.34;;;14.70;nan
12777;BME280;6452;41.572;23.732;2023-11-19T14:20:09;95080.06;;;14.44;nan
12777;BME280;6452;41.572;23.732;2023-11-19T14:22:45;95111.94;;;14.12;nan
12777;BME280;6452;41.572;23.732;2023-11-19T14:25:16;95126.59;;;13.86;nan
12777;BME280;6452;41.572;23.732;2023-11-19T14:27:44;95122.59;;;13.39;nan
12777;BME280;6452;41.572;23.732;2023-11-19T14:30:12;95125.94;;;13.01;nan
12777;BME280;6452;41.572;23.732;2023-11-19T14:32:41;95075.03;;;12.21;nan
12777;BME280;6452;41.572;23.732;2023-11-19T14:35:09;95128.72;;;12.15;nan
12777;BME280;6452;41.572;23.732;2023-11-19T14:37:35;95152.19;;;11.82;nan
12777;BME280;6452;41.572;23.732;2023-11-19T14:40:02;95146.00;;;11.71;nan
12777;BME280;6452;41.572;23.732;2023-11-19T14:42:32;95064.44;;;11.03;nan
12777;BME280;6452;41.572;23.732;2023-11-19T14:44:58;95145.13;;;11.46;nan
12777;BME280;6452;41.572;23.732;2023-11-19T14:47:29;95170.03;;;11.04;nan
12777;BME280;6452;41.572;23.732;2023-11-19T14:49:57;95153.97;;;10.89;nan
12777;BME280;6452;41.572;23.732;2023-11-19T14:52:23;95155.97;;;10.67;nan
12777;BME280;6452;41.572;23.732;2023-11-19T14:54:50;95113.13;;;9.99;nan
12777;BME280;6452;41.572;23.732;2023-11-19T14:57:20;95157.03;;;10.02;nan
12777;BME280;6452;41.572;23.732;2023-11-19T14:59:47;95156.81;;;9.76;nan
12777;BME280;6452;41.572;23.732;2023-11-19T15:02:14;95187.03;;;9.65;nan
12777;BME280;6452;41.572;23.732;2023-11-19T15:04:41;95189.66;;;9.60;nan
12777;BME280;6452;41.572;23.732;2023-11-19T15:07:10;95192.75;;;9.52;nan
12777;BME280;6452;41.572;23.732;2023-11-19T15:09:37;95201.78;;;9.51;nan
12777;BME280;6452;41.572;23.732;2023-11-19T15:12:06;95192.63;;;8.98;nan
12777;BME280;6452;41.572;23.732;2023-11-19T15:14:32;95194.41;;;8.71;nan
12777;BME280;6452;41.572;23.732;2023-11-19T15:16:59;95195.63;;;8.47;nan
12777;BME280;6452;41.572;23.732;2023-11-19T15:19:25;95207.22;;;8.41;nan
12777;BME280;6452;41.572;23.732;2023-11-19T15:21:53;95210.50;;;8.48;nan
12777;BME280;6452;41.572;23.732;2023-11-19T15:24:22;95191.59;;;8.28;nan
12777;BME280;6452;41.572;23.732;2023-11-19T15:26:52;95205.53;;;8.35;nan
12777;BME280;6452;41.572;23.732;2023-11-19T15:29:19;95179.03;;;8.06;nan
12777;BME280;6452;41.572;23.732;2023-11-19T15:31:46;95240.13;;;8.40;nan
12777;BME280;6452;41.572;23.732;2023-11-19T15:34:13;95173.41;;;8.19;nan
12777;BME280;6452;41.572;23.732;2023-11-19T15:36:40;95217.75;;;8.52;nan
12777;BME280;6452;41.572;23.732;2023-11-19T15:39:09;95210.50;;;8.31;nan
12777;BME280;6452;41.572;23.732;2023-11-19T15:41:39;95242.25;;;8.26;nan
12777;BME280;6452;41.572;23.732;2023-11-19T15:44:06;95248.69;;;8.13;nan
12777;BME280;6452;41.572;23.732;2023-11-19T15:46:34;95254.00;;;8.13;nan
12777;BME280;6452;41.572;23.732;2023-11-19T15:49:01;95260.38;;;8.01;nan
12777;BME280;6452;41.572;23.732;2023-11-19T15:51:29;95269.63;;;7.98;nan
12777;BME280;6452;41.572;23.732;2023-11-19T15:53:56;95265.03;;;7.94;nan
12777;BME280;6452;41.572;23.732;2023-11-19T15:56:24;95255.56;;;7.98;nan
12777;BME280;6452;41.572;23.732;2023-11-19T15:58:51;95238.69;;;8.04;nan
12777;BME280;6452;41.572;23.732;2023-11-19T16:01:18;95241.25;;;8.15;nan
12777;BME280;6452;41.572;23.732;2023-11-19T16:03:45;95184.06;;;7.91;nan
12777;BME280;6452;41.572;23.732;2023-11-19T16:06:12;95226.28;;;8.09;nan
12777;BME280;6452;41.572;23.732;2023-11-19T16:08:39;95227.72;;;8.00;nan
12777;BME280;6452;41.572;23.732;2023-11-19T16:11:06;95203.13;;;7.88;nan
12777;BME280;6452;41.572;23.732;2023-11-19T16:13:34;95236.59;;;8.06;nan
12777;BME280;6452;41.572;23.732;2023-11-19T16:16:01;95235.75;;;7.89;nan
12777;BME280;6452;41.572;23.732;2023-11-19T16:18:29;95226.53;;;7.63;nan
12777;BME280;6452;41.572;23.732;2023-11-19T16:20:56;95227.59;;;7.50;nan
12777;BME280;6452;41.572;23.732;2023-11-19T16:23:23;95225.88;;;7.44;nan
12777;BME280;6452;41.572;23.732;2023-11-19T16:25:53;95183.69;;;7.14;nan
12777;BME280;6452;41.572;23.732;2023-11-19T16:28:20;95228.34;;;7.34;nan
12777;BME280;6452;41.572;23.732;2023-11-19T16:30:50;95221.91;;;7.30;nan
12777;BME280;6452;41.572;23.732;2023-11-19T16:33:18;95237.00;;;7.29;nan
12777;BME280;6452;41.572;23.732;2023-11-19T16:35:45;95235.19;;;7.18;nan
12777;BME280;6452;41.572;23.732;2023-11-19T16:38:13;95196.41;;;6.77;nan
12777;BME280;6452;41.572;23.732;2023-11-19T16:40:44;95243.06;;;6.90;nan
12777;BME280;6452;41.572;23.732;2023-11-19T16:43:12;95244.91;;;6.89;nan
12777;BME280;6452;41.572;23.732;2023-11-19T16:45:39;95240.41;;;6.78;nan
12777;BME280;6452;41.572;23.732;2023-11-19T16:48:06;95243.63;;;6.57;nan
12777;BME280;6452;41.572;23.732;2023-11-19T16:50:35;95249.63;;;6.41;nan
12777;BME280;6452;41.572;23.732;2023-11-19T16:53:03;95140.56;;;5.74;nan
12777;BME280;6452;41.572;23.732;2023-11-19T16:55:30;95181.66;;;5.88;nan
12777;BME280;6452;41.572;23.732;2023-11-19T16:57:58;95219.88;;;6.27;nan
12777;BME280;6452;41.572;23.732;2023-11-19T17:00:25;95214.44;;;5.99;nan
12777;BME280;6452;41.572;23.732;2023-11-19T17:02:53;95257.03;;;6.20;nan
12777;BME280;6452;41.572;23.732;2023-11-19T17:05:20;95250.00;;;6.14;nan
12777;BME280;6452;41.572;23.732;2023-11-19T17:07:49;95223.34;;;5.74;nan
12777;BME280;6452;41.572;23.732;2023-11-19T17:10:16;95202.72;;;5.65;nan
12777;BME280;6452;41.572;23.732;2023-11-19T17:12:44;95252.25;;;5.87;nan
12777;BME280;6452;41.572;23.732;2023-11-19T17:15:11;95252.38;;;5.93;nan
12777;BME280;6452;41.572;23.732;2023-11-19T17:17:38;95210.09;;;5.74;nan
12777;BME280;6452;41.572;23.732;2023-11-19T17:20:06;95198.31;;;5.47;nan
12777;BME280;6452;41.572;23.732;2023-11-19T17:22:34;95254.75;;;5.82;nan
12777;BME280;6452;41.572;23.732;2023-11-19T17:25:02;95257.38;;;5.82;nan
12777;BME280;6452;41.572;23.732;2023-11-19T17:27:31;95252.41;;;5.74;nan
12777;BME280;6452;41.572;23.732;2023-11-19T17:29:57;95274.94;;;5.77;nan
12777;BME280;6452;41.572;23.732;2023-11-19T17:32:24;95272.13;;;5.60;nan
12777;BME280;6452;41.572;23.732;2023-11-19T17:34:51;95231.34;;;5.20;nan
12777;BME280;6452;41.572;23.732;2023-11-19T17:37:17;95232.16;;;5.20;nan
12777;BME280;6452;41.572;23.732;2023-11-19T17:39:44;95280.34;;;5.52;nan
12777;BME280;6452;41.572;23.732;2023-11-19T17:42:11;95279.88;;;5.55;nan
12777;BME280;6452;41.572;23.732;2023-11-19T17:44:38;95282.41;;;5.50;nan
12777;BME280;6452;41.572;23.732;2023-11-19T17:47:06;95280.25;;;5.59;nan
12777;BME280;6452;41.572;23.732;2023-11-19T17:49:33;95276.00;;;5.58;nan
12777;BME280;6452;41.572;23.732;2023-11-19T17:52:01;95270.97;;;5.38;nan
12777;BME280;6452;41.572;23.732;2023-11-19T17:54:27;95263.41;;;5.41;nan
12777;BME280;6452;41.572;23.732;2023-11-19T17:56:55;95266.28;;;5.40;nan
12777;BME280;6452;41.572;23.732;2023-11-19T17:59:26;95259.84;;;5.18;nan
12777;BME280;6452;41.572;23.732;2023-11-19T18:01:53;95275.97;;;5.28;nan
12777;BME280;6452;41.572;23.732;2023-11-19T18:04:24;95266.72;;;5.19;nan
12777;BME280;6452;41.572;23.732;2023-11-19T18:06:52;95281.84;;;5.30;nan
12777;BME280;6452;41.572;23.732;2023-11-19T18:09:19;95267.59;;;5.31;nan
12777;BME280;6452;41.572;23.732;2023-11-19T18:11:47;95284.63;;;5.35;nan
12777;BME280;6452;41.572;23.732;2023-11-19T18:14:17;95278.16;;;5.31;nan
12777;BME280;6452;41.572;23.732;2023-11-19T18:16:44;95255.38;;;5.18;nan
12777;BME280;6452;41.572;23.732;2023-11-19T18:19:11;95279.06;;;5.25;nan
12777;BME280;6452;41.572;23.732;2023-11-19T18:21:37;95234.81;;;5.02;nan
12777;BME280;6452;41.572;23.732;2023-11-19T18:24:07;95271.84;;;5.14;nan
12777;BME280;6452;41.572;23.732;2023-11-19T18:26:35;95263.28;;;5.00;nan
12777;BME280;6452;41.572;23.732;2023-11-19T18:29:03;95283.06;;;4.91;nan
12777;BME280;6452;41.572;23.732;2023-11-19T18:31:30;95253.56;;;4.76;nan
12777;BME280;6452;41.572;23.732;2023-11-19T18:33:58;95273.03;;;4.99;nan
12777;BME280;6452;41.572;23.732;2023-11-19T18:36:25;95262.03;;;5.02;nan
12777;BME280;6452;41.572;23.732;2023-11-19T18:38:54;95169.31;;;4.56;nan
12777;BME280;6452;41.572;23.732;2023-11-19T18:41:21;95233.63;;;4.98;nan
12777;BME280;6452;41.572;23.732;2023-11-19T18:43:48;95271.84;;;5.14;nan
12777;BME280;6452;41.572;23.732;2023-11-19T18:46:19;95287.28;;;5.17;nan
12777;BME280;6452;41.572;23.732;2023-11-19T18:48:46;95228.94;;;4.82;nan
12777;BME280;6452;41.572;23.732;2023-11-19T18:51:13;95291.59;;;5.11;nan
12777;BME280;6452;41.572;23.732;2023-11-19T18:53:40;95284.41;;;5.18;nan
12777;BME280;6452;41.572;23.732;2023-11-19T18:56:08;95275.59;;;5.24;nan
12777;BME280;6452;41.572;23.732;2023-11-19T18:58:35;95233.94;;;4.90;nan
12777;BME280;6452;41.572;23.732;2023-11-19T19:01:02;95278.16;;;5.13;nan
12777;BME280;6452;41.572;23.732;2023-11-19T19:03:29;95274.41;;;4.84;nan
12777;BME280;6452;41.572;23.732;2023-11-19T19:05:58;95278.59;;;4.91;nan
12777;BME280;6452;41.572;23.732;2023-11-19T19:08:25;95271.84;;;4.95;nan
12777;BME280;6452;41.572;23.732;2023-11-19T19:10:52;95275.66;;;4.81;nan
12777;BME280;6452;41.572;23.732;2023-11-19T19:13:19;95282.69;;;5.05;nan
12777;BME280;6452;41.572;23.732;2023-11-19T19:15:45;95281.25;;;5.09;nan
12777;BME280;6452;41.572;23.732;2023-11-19T19:18:12;95279.63;;;5.08;nan
12777;BME280;6452;41.572;23.732;2023-11-19T19:20:39;95271.41;;;4.98;nan
12777;BME280;6452;41.572;23.732;2023-11-19T19:23:06;95284.00;;;4.78;nan
12777;BME280;6452;41.572;23.732;2023-11-19T19:25:34;95264.78;;;4.71;nan
12777;BME280;6452;41.572;23.732;2023-11-19T19:28:01;95236.63;;;4.65;nan
12777;BME280;6452;41.572;23.732;2023-11-19T19:30:28;95274.72;;;4.51;nan
12777;BME280;6452;41.572;23.732;2023-11-19T19:32:55;95275.06;;;4.54;nan
12777;BME280;6452;41.572;23.732;2023-11-19T19:35:23;95271.06;;;4.70;nan
12777;BME280;6452;41.572;23.732;2023-11-19T19:38:15;95288.03;;;4.81;nan
12777;BME280;6452;41.572;23.732;2023-11-19T19:40:42;95293.53;;;4.79;nan
12777;BME280;6452;41.572;23.732;2023-11-19T19:43:09;95294.19;;;4.75;nan
12777;BME280;6452;41.572;23.732;2023-11-19T19:45:37;95288.72;;;4.51;nan
12777;BME280;6452;41.572;23.732;2023-11-19T19:48:05;95209.19;;;3.98;nan
12777;BME280;6452;41.572;23.732;2023-11-19T19:50:36;95309.75;;;4.33;nan
12777;BME280;6452;41.572;23.732;2023-11-19T19:53:04;95316.91;;;4.26;nan
12777;BME280;6452;41.572;23.732;2023-11-19T19:55:30;95257.34;;;3.87;nan
12777;BME280;6452;41.572;23.732;2023-11-19T19:57:57;95297.31;;;4.15;nan
12777;BME280;6452;41.572;23.732;2023-11-19T20:00:24;95264.16;;;4.01;nan
12777;BME280;6452;41.572;23.732;2023-11-19T20:02:52;95305.00;;;4.17;nan
12777;BME280;6452;41.572;23.732;2023-11-19T20:05:18;95254.53;;;3.82;nan
12777;BME280;6452;41.572;23.732;2023-11-19T20:07:45;95210.06;;;3.61;nan
12777;BME280;6452;41.572;23.732;2023-11-19T20:10:14;95268.09;;;3.85;nan
12777;BME280;6452;41.572;23.732;2023-11-19T20:12:41;95256.63;;;3.73;nan
12777;BME280;6452;41.572;23.732;2023-11-19T20:15:09;95265.09;;;3.75;nan
12777;BME280;6452;41.572;23.732;2023-11-19T20:17:36;95269.75;;;3.80;nan
12777;BME280;6452;41.572;23.732;2023-11-19T20:20:05;95326.16;;;4.10;nan
12777;BME280;6452;41.572;23.732;2023-11-19T20:22:32;95321.28;;;4.07;nan
12777;BME280;6452;41.572;23.732;2023-11-19T20:25:00;95329.88;;;3.96;nan
12777;BME280;6452;41.572;23.732;2023-11-19T20:27:27;95304.06;;;3.73;nan
12777;BME280;6452;41.572;23.732;2023-11-19T20:29:54;95263.03;;;3.46;nan
12777;BME280;6452;41.572;23.732;2023-11-19T20:32:21;95313.59;;;3.74;nan
12777;BME280;6452;41.572;23.732;2023-11-19T20:34:48;95324.38;;;3.66;nan
12777;BME280;6452;41.572;23.732;2023-11-19T20:37:14;95256.97;;;3.45;nan
12777;BME280;6452;41.572;23.732;2023-11-19T20:39:41;95293.97;;;3.64;nan
12777;BME280;6452;41.572;23.732;2023-11-19T20:42:08;95302.09;;;3.56;nan
12777;BME280;6452;41.572;23.732;2023-11-19T20:44:35;95288.31;;;3.53;nan
12777;BME280;6452;41.572;23.732;2023-11-19T20:47:03;95291.31;;;3.64;nan
12777;BME280;6452;41.572;23.732;2023-11-19T20:49:31;95284.44;;;3.63;nan
12777;BME280;6452;41.572;23.732;2023-11-19T20:51:57;95291.94;;;3.66;nan
12777;BME280;6452;41.572;23.732;2023-11-19T20:54:24;95285.53;;;3.48;nan
12777;BME280;6452;41.572;23.732;2023-11-19T20:56:51;95282.59;;;3.19;nan
12777;BME280;6452;41.572;23.732;2023-11-19T20:59:17;95264.00;;;3.13;nan
12777;BME280;6452;41.572;23.732;2023-11-19T21:01:44;95286.78;;;3.33;nan
12777;BME280;6452;41.572;23.732;2023-11-19T21:04:12;95313.09;;;3.39;nan
12777;BME280;6452;41.572;23.732;2023-11-19T21:06:38;95326.31;;;3.26;nan
12777;BME280;6452;41.572;23.732;2023-11-19T21:09:06;95230.13;;;2.72;nan
12777;BME280;6452;41.572;23.732;2023-11-19T21:11:35;95321.88;;;3.20;nan
12777;BME280;6452;41.572;23.732;2023-11-19T21:14:02;95305.16;;;3.01;nan
12777;BME280;6452;41.572;23.732;2023-11-19T21:16:29;95314.03;;;3.07;nan
12777;BME280;6452;41.572;23.732;2023-11-19T21:19:00;95307.97;;;3.00;nan
12777;BME280;6452;41.572;23.732;2023-11-19T21:21:26;95271.16;;;2.87;nan
12777;BME280;6452;41.572;23.732;2023-11-19T21:23:53;95267.75;;;2.80;nan
12777;BME280;6452;41.572;23.732;2023-11-19T21:26:22;95323.97;;;2.92;nan
12777;BME280;6452;41.572;23.732;2023-11-19T21:28:49;95310.84;;;2.79;nan
12777;BME280;6452;41.572;23.732;2023-11-19T21:31:16;95311.69;;;2.66;nan
12777;BME280;6452;41.572;23.732;2023-11-19T21:33:44;95296.88;;;2.78;nan
12777;BME280;6452;41.572;23.732;2023-11-19T21:36:11;95255.47;;;2.34;nan
12777;BME280;6452;41.572;23.732;2023-11-19T21:38:37;95308.25;;;2.59;nan
12777;BME280;6452;41.572;23.732;2023-11-19T21:41:04;95291.06;;;2.43;nan
12777;BME280;6452;41.572;23.732;2023-11-19T21:43:33;95278.91;;;2.42;nan
12777;BME280;6452;41.572;23.732;2023-11-19T21:46:00;95328.25;;;2.80;nan
12777;BME280;6452;41.572;23.732;2023-11-19T21:48:31;95334.09;;;2.88;nan
12777;BME280;6452;41.572;23.732;2023-11-19T21:50:58;95298.75;;;2.51;nan
12777;BME280;6452;41.572;23.732;2023-11-19T21:53:28;95301.75;;;2.55;nan
12777;BME280;6452;41.572;23.732;2023-11-19T21:55:55;95334.53;;;2.79;nan
12777;BME280;6452;41.572;23.732;2023-11-19T21:58:24;95349.91;;;2.75;nan
12777;BME280;6452;41.572;23.732;2023-11-19T22:00:51;95369.75;;;2.78;nan
12777;BME280;6452;41.572;23.732;2023-11-19T22:03:18;95362.25;;;2.74;nan
12777;BME280;6452;41.572;23.732;2023-11-19T22:05:44;95355.38;;;2.80;nan
12777;BME280;6452;41.572;23.732;2023-11-19T22:08:14;95331.91;;;2.79;nan
12777;BME280;6452;41.572;23.732;2023-11-19T22:10:41;95284.78;;;2.57;nan
12777;BME280;6452;41.572;23.732;2023-11-19T22:13:08;95317.34;;;2.69;nan
12777;BME280;6452;41.572;23.732;2023-11-19T22:15:35;95293.47;;;2.64;nan
12777;BME280;6452;41.572;23.732;2023-11-19T22:18:01;95279.72;;;2.56;nan
12777;BME280;6452;41.572;23.732;2023-11-19T22:20:29;95249.19;;;2.42;nan
12777;BME280;6452;41.572;23.732;2023-11-19T22:22:55;95285.38;;;2.59;nan
12777;BME280;6452;41.572;23.732;2023-11-19T22:25:22;95275.25;;;2.56;nan
12777;BME280;6452;41.572;23.732;2023-11-19T22:27:51;95237.25;;;2.26;nan
12777;BME280;6452;41.572;23.732;2023-11-19T22:30:17;95299.34;;;2.66;nan
12777;BME280;6452;41.572;23.732;2023-11-19T22:32:44;95282.75;;;2.59;nan
12777;BME280;6452;41.572;23.732;2023-11-19T22:35:12;95286.97;;;2.60;nan
12777;BME280;6452;41.572;23.732;2023-11-19T22:37:42;95297.31;;;2.62;nan
12777;BME280;6452;41.572;23.732;2023-11-19T22:40:08;95288.59;;;2.55;nan
12777;BME280;6452;41.572;23.732;2023-11-19T22:42:37;95292.06;;;2.42;nan
12777;BME280;6452;41.572;23.732;2023-11-19T22:45:05;95306.63;;;2.51;nan
12777;BME280;6452;41.572;23.732;2023-11-19T22:47:33;95293.88;;;2.61;nan
12777;BME280;6452;41.572;23.732;2023-11-19T22:50:00;95274.47;;;2.43;nan
12777;BME280;6452;41.572;23.732;2023-11-19T22:52:32;95278.50;;;2.32;nan
12777;BME280;6452;41.572;23.732;2023-11-19T22:54:59;95310.88;;;2.39;nan
12777;BME280;6452;41.572;23.732;2023-11-19T22:57:26;95296.72;;;2.40;nan
12777;BME280;6452;41.572;23.732;2023-11-19T22:59:52;95236.84;;;2.09;nan
12777;BME280;6452;41.572;23.732;2023-11-19T23:02:18;95281.75;;;2.34;nan
12777;BME280;6452;41.572;23.732;2023-11-19T23:04:45;95295.69;;;2.41;nan
12777;BME280;6452;41.572;23.732;2023-11-19T23:07:11;95289.63;;;2.41;nan
12777;BME280;6452;41.572;23.732;2023-11-19T23:09:38;95300.34;;;2.39;nan
12777;BME280;6452;41.572;23.732;2023-11-19T23:12:07;95264.75;;;2.04;nan
12777;BME280;6452;41.572;23.732;2023-11-19T23:14:33;95295.09;;;2.19;nan
12777;BME280;6452;41.572;23.732;2023-11-19T23:16:59;95327.06;;;2.36;nan
12777;BME280;6452;41.572;23.732;2023-11-19T23:19:26;95313.50;;;2.32;nan
12777;BME280;6452;41.572;23.732;2023-11-19T23:21:53;95259.69;;;1.82;nan
12777;BME280;6452;41.572;23.732;2023-11-19T23:24:20;95303.78;;;2.07;nan
12777;BME280;6452;41.572;23.732;2023-11-19T23:26:46;95300.34;;;2.13;nan
12777;BME280;6452;41.572;23.732;2023-11-19T23:29:13;95323.19;;;2.19;nan
12777;BME280;6452;41.572;23.732;2023-11-19T23:31:40;95311.69;;;2.13;nan
12777;BME280;6452;41.572;23.732;2023-11-19T23:34:07;95259.28;;;1.85;nan
12777;BME280;6452;41.572;23.732;2023-11-19T23:36:33;95263.53;;;1.80;nan
12777;BME280;6452;41.572;23.732;2023-11-19T23:39:00;95298.72;;;1.99;nan
12777;BME280;6452;41.572;23.732;2023-11-19T23:41:27;95308.63;;;2.03;nan
12777;BME280;6452;41.572;23.732;2023-11-19T23:43:53;95314.50;;;2.05;nan
12777;BME280;6452;41.572;23.732;2023-11-19T23:46:24;95308.84;;;2.02;nan
12777;BME280;6452;41.572;23.732;2023-11-19T23:48:52;95268.56;;;1.75;nan
12777;BME280;6452;41.572;23.732;2023-11-19T23:51:21;95259.47;;;1.64;nan
12777;BME280;6452;41.572;23.732;2023-11-19T23:53:53;95301.16;;;2.00;nan
12777;BME280;6452;41.572;23.732;2023-11-19T23:56:19;95280.31;;;2.05;nan
12777;BME280;6452;41.572;23.732;2023-11-19T23:58:50;95201.25;;;1.54;nan
